createdAt,value
2023-05-16T00:00:38.098Z,96562.47
2023-05-16T00:03:06.397Z,96559.53
2023-05-16T00:05:36.070Z,96564.19
2023-05-16T00:08:03.596Z,96561.47
2023-05-16T00:10:31.139Z,96556.84
2023-05-16T00:12:58.670Z,96556.72
2023-05-16T00:15:26.295Z,96550.66
2023-05-16T00:17:57.885Z,96557.47
2023-05-16T00:20:25.824Z,96554.72
2023-05-16T00:22:54.936Z,96541.50
2023-05-16T00:25:22.560Z,96563.06
2023-05-16T00:27:50.099Z,96559.59
2023-05-16T00:30:17.636Z,96531.28
2023-05-16T00:32:45.261Z,96561.44
2023-05-16T00:35:12.792Z,96562.44
2023-05-16T00:37:41.502Z,96535.56
2023-05-16T00:40:11.666Z,96558.31
2023-05-16T00:42:39.481Z,96529.38
2023-05-16T00:45:08.484Z,96562.03
2023-05-16T00:47:36.321Z,96554.97
2023-05-16T00:50:04.327Z,96559.50
2023-05-16T00:52:33.578Z,96559.66
2023-05-16T00:55:01.238Z,96560.03
2023-05-16T00:57:30.138Z,96569.94
2023-05-16T00:59:57.927Z,96560.03
2023-05-16T01:02:28.394Z,96565.94
2023-05-16T01:04:56.731Z,96567.84
2023-05-16T01:07:24.676Z,96565.34
2023-05-16T01:09:52.206Z,96563.09
2023-05-16T01:12:26.214Z,96552.06
2023-05-16T01:15:04.039Z,96559.19
2023-05-16T01:17:38.185Z,96562.56
2023-05-16T01:20:15.029Z,96566.19
2023-05-16T01:22:53.701Z,96560.19
2023-05-16T01:25:33.049Z,96561.84
2023-05-16T01:28:02.343Z,96558.47
2023-05-16T01:30:33.878Z,96560.75
2023-05-16T01:33:01.404Z,96560.19
2023-05-16T01:35:29.652Z,96550.94
2023-05-16T01:38:00.602Z,96556.00
2023-05-16T01:40:33.429Z,96528.53
2023-05-16T01:43:07.098Z,96543.03
2023-05-16T01:45:35.871Z,96526.09
2023-05-16T01:48:08.288Z,96542.66
2023-05-16T01:50:40.825Z,96537.53
2023-05-16T01:53:11.287Z,96541.56
2023-05-16T01:55:44.515Z,96543.09
2023-05-16T01:58:14.972Z,96541.56
2023-05-16T02:00:43.063Z,96541.00
2023-05-16T02:03:10.841Z,96550.47
2023-05-16T02:05:38.508Z,96545.06
2023-05-16T02:08:06.249Z,96527.06
2023-05-16T02:10:33.887Z,96540.00
2023-05-16T02:13:01.513Z,96532.47
2023-05-16T02:15:30.522Z,96534.38
2023-05-16T02:17:58.646Z,96529.25
2023-05-16T02:20:26.232Z,96534.47
2023-05-16T02:22:53.751Z,96530.53
2023-05-16T02:25:21.298Z,96523.34
2023-05-16T02:27:49.326Z,96530.16
2023-05-16T02:30:17.039Z,96531.69
2023-05-16T02:32:46.082Z,96532.25
2023-05-16T02:35:13.716Z,96528.78
2023-05-16T02:37:41.392Z,96529.13
2023-05-16T02:40:10.250Z,96530.94
2023-05-16T02:42:38.130Z,96533.47
2023-05-16T02:45:06.602Z,96524.47
2023-05-16T02:47:34.254Z,96531.25
2023-05-16T02:50:03.846Z,96546.03
2023-05-16T02:52:31.408Z,96540.75
2023-05-16T02:55:16.147Z,96558.56
2023-05-16T02:57:46.666Z,96524.25
2023-05-16T03:00:17.763Z,96529.19
2023-05-16T03:02:47.025Z,96563.56
2023-05-16T03:05:16.250Z,96558.13
2023-05-16T03:07:43.852Z,96559.94
2023-05-16T03:10:11.848Z,96559.59
2023-05-16T03:12:39.375Z,96565.69
2023-05-16T03:15:09.217Z,96562.22
2023-05-16T03:17:36.834Z,96562.00
2023-05-16T03:20:05.292Z,96568.53
2023-05-16T03:22:34.191Z,96571.53
2023-05-16T03:25:01.709Z,96572.00
2023-05-16T03:27:29.515Z,96565.75
2023-05-16T03:29:57.054Z,96569.19
2023-05-16T03:32:24.883Z,96573.47
2023-05-16T03:34:52.734Z,96577.72
2023-05-16T03:37:20.936Z,96557.59
2023-05-16T03:39:49.831Z,96580.19
2023-05-16T03:42:18.439Z,96581.28
2023-05-16T03:44:45.988Z,96590.84
2023-05-16T03:47:13.513Z,96578.34
2023-05-16T03:49:41.087Z,96588.16
2023-05-16T03:52:08.763Z,96583.06
2023-05-16T03:54:36.270Z,96575.28
2023-05-16T03:57:06.044Z,96585.56
2023-05-16T03:59:34.556Z,96584.09
2023-05-16T04:02:02.186Z,96589.03
2023-05-16T04:04:29.729Z,96590.72
2023-05-16T04:06:57.348Z,96599.09
2023-05-16T04:09:24.879Z,96591.00
2023-05-16T04:11:52.428Z,96596.84
2023-05-16T04:14:21.405Z,96598.03
2023-05-16T04:16:48.919Z,96598.88
2023-05-16T04:19:16.672Z,96595.72
2023-05-16T04:21:44.386Z,96601.91
2023-05-16T04:24:11.935Z,96604.09
2023-05-16T04:26:39.593Z,96606.38
2023-05-16T04:29:07.115Z,96605.84
2023-05-16T04:31:37.104Z,96603.84
2023-05-16T04:34:04.787Z,96597.47
2023-05-16T04:36:32.611Z,96603.88
2023-05-16T04:39:00.211Z,96594.41
2023-05-16T04:41:28.009Z,96599.84
2023-05-16T04:43:55.571Z,96595.84
2023-05-16T04:46:23.192Z,96598.84
2023-05-16T04:48:52.129Z,96589.56
2023-05-16T04:51:19.704Z,96591.66
2023-05-16T04:53:47.213Z,96586.81
2023-05-16T04:56:14.765Z,96582.06
2023-05-16T04:58:42.970Z,96547.31
2023-05-16T05:01:10.814Z,96577.34
2023-05-16T05:03:38.553Z,96556.59
2023-05-16T05:06:07.648Z,96578.59
2023-05-16T05:08:35.289Z,96576.34
2023-05-16T05:11:02.889Z,96561.38
2023-05-16T05:13:30.653Z,96568.22
2023-05-16T05:15:58.143Z,96544.31
2023-05-16T05:18:25.923Z,96536.03
2023-05-16T05:20:53.722Z,96567.56
2023-05-16T05:23:22.598Z,96571.84
2023-05-16T05:25:50.326Z,96575.69
2023-05-16T05:28:17.987Z,96582.41
2023-05-16T05:30:46.717Z,96581.44
2023-05-16T05:33:15.921Z,96589.09
2023-05-16T05:35:43.446Z,96579.88
2023-05-16T05:38:11.078Z,96574.03
2023-05-16T05:40:39.930Z,96577.13
2023-05-16T05:43:07.446Z,96576.19
2023-05-16T05:45:35.030Z,96570.50
2023-05-16T05:48:02.649Z,96564.59
2023-05-16T05:50:30.204Z,96568.50
2023-05-16T05:52:57.761Z,96562.44
2023-05-16T05:55:25.422Z,96540.47
2023-05-16T05:57:54.433Z,96559.66
2023-05-16T06:00:22.323Z,96556.44
2023-05-16T06:02:49.926Z,96549.50
2023-05-16T06:05:17.638Z,96538.25
2023-05-16T06:07:45.428Z,96548.22
2023-05-16T06:10:13.010Z,96533.69
2023-05-16T06:12:40.597Z,96543.03
2023-05-16T06:15:11.337Z,96545.31
2023-05-16T06:17:38.984Z,96551.22
2023-05-16T06:20:08.052Z,96540.56
2023-05-16T06:22:35.611Z,96548.31
2023-05-16T06:25:03.486Z,96546.44
2023-05-16T06:27:31.020Z,96552.31
2023-05-16T06:29:58.576Z,96539.63
2023-05-16T06:32:27.573Z,96539.34
2023-05-16T06:34:55.310Z,96541.16
2023-05-16T06:37:23.466Z,96538.09
2023-05-16T06:39:50.983Z,96543.28
2023-05-16T06:42:19.268Z,96540.34
2023-05-16T06:44:47.241Z,96537.47
2023-05-16T06:47:14.769Z,96534.56
2023-05-16T06:49:44.815Z,96532.91
2023-05-16T06:52:12.557Z,96529.56
2023-05-16T06:54:40.182Z,96528.59
2023-05-16T06:57:08.555Z,96535.66
2023-05-16T06:59:36.250Z,96549.91
2023-05-16T07:02:03.974Z,96521.66
2023-05-16T07:04:31.735Z,96544.72
2023-05-16T07:07:00.634Z,96551.47
2023-05-16T07:09:28.307Z,96550.44
2023-05-16T07:11:56.168Z,96543.69
2023-05-16T07:14:23.816Z,96543.25
2023-05-16T07:16:51.522Z,96539.44
2023-05-16T07:19:19.253Z,96542.56
2023-05-16T07:21:46.841Z,96547.44
2023-05-16T07:24:15.749Z,96543.22
2023-05-16T07:26:43.387Z,96544.19
2023-05-16T07:29:11.161Z,96548.47
2023-05-16T07:31:38.774Z,96552.63
2023-05-16T07:34:06.626Z,96559.78
2023-05-16T07:36:34.770Z,96557.19
2023-05-16T07:39:02.355Z,96563.63
2023-05-16T07:41:31.495Z,96565.31
2023-05-16T07:43:59.106Z,96566.75
2023-05-16T07:46:26.771Z,96571.41
2023-05-16T07:48:54.337Z,96569.41
2023-05-16T07:51:21.989Z,96567.31
2023-05-16T07:53:49.673Z,96551.44
2023-05-16T07:56:17.341Z,96552.72
2023-05-16T07:58:48.981Z,96566.91
2023-05-16T08:01:16.961Z,96563.13
2023-05-16T08:03:44.597Z,96563.78
2023-05-16T08:06:12.567Z,96566.44
2023-05-16T08:08:40.180Z,96554.53
2023-05-16T08:11:07.735Z,96559.06
2023-05-16T08:13:35.552Z,96565.34
2023-05-16T08:16:04.759Z,96557.81
2023-05-16T08:18:32.569Z,96565.31
2023-05-16T08:21:00.274Z,96565.81
2023-05-16T08:23:27.823Z,96555.25
2023-05-16T08:25:55.548Z,96558.59
2023-05-16T08:28:23.098Z,96555.94
2023-05-16T08:30:50.794Z,96559.44
2023-05-16T08:33:19.779Z,96554.72
2023-05-16T08:35:48.937Z,96555.47
2023-05-16T08:38:16.508Z,96555.28
2023-05-16T08:40:44.177Z,96566.66
2023-05-16T08:43:12.131Z,96561.22
2023-05-16T08:45:41.383Z,96556.59
2023-05-16T08:48:10.448Z,96556.34
2023-05-16T08:50:39.580Z,96562.56
2023-05-16T08:53:09.186Z,96562.03
2023-05-16T08:55:37.224Z,96561.09
2023-05-16T08:58:05.504Z,96566.69
2023-05-16T09:00:33.276Z,96560.34
2023-05-16T09:03:01.336Z,96560.63
2023-05-16T09:05:30.890Z,96565.69
2023-05-16T09:08:00.276Z,96567.97
2023-05-16T09:10:28.080Z,96542.50
2023-05-16T09:12:55.774Z,96548.78
2023-05-16T09:15:23.318Z,96545.66
2023-05-16T09:17:50.998Z,96547.81
2023-05-16T09:20:20.199Z,96542.53
2023-05-16T09:22:55.112Z,96541.38
2023-05-16T09:27:56.548Z,96536.50
2023-05-16T09:30:25.586Z,96526.84
2023-05-16T09:32:54.112Z,96538.00
2023-05-16T09:35:39.084Z,96545.75
2023-05-16T09:38:15.150Z,96542.13
2023-05-16T09:40:44.117Z,96552.25
2023-05-16T09:43:11.710Z,96549.75
2023-05-16T09:45:39.369Z,96545.91
2023-05-16T09:48:08.793Z,96537.66
2023-05-16T09:50:38.829Z,96534.72
2023-05-16T09:53:08.087Z,96535.53
2023-05-16T09:55:35.911Z,96536.25
2023-05-16T09:58:04.912Z,96535.94
2023-05-16T10:00:33.998Z,96531.03
2023-05-16T10:03:05.381Z,96523.78
2023-05-16T10:05:34.044Z,96506.72
2023-05-16T10:08:04.057Z,96520.44
2023-05-16T10:10:32.644Z,96507.44
2023-05-16T10:13:01.412Z,96531.84
2023-05-16T10:15:30.669Z,96546.66
2023-05-16T10:18:00.618Z,96544.13
2023-05-16T10:20:28.941Z,96536.75
2023-05-16T10:22:57.853Z,96529.22
2023-05-16T10:25:30.774Z,96535.13
2023-05-16T10:27:59.368Z,96544.16
2023-05-16T10:30:27.050Z,96529.84
2023-05-16T10:32:57.693Z,96520.69
2023-05-16T10:35:27.279Z,96525.56
2023-05-16T10:37:56.255Z,96524.81
2023-05-16T10:40:24.139Z,96525.94
2023-05-16T10:42:57.856Z,96514.66
2023-05-16T10:45:25.885Z,96521.06
2023-05-16T10:47:56.267Z,96520.56
2023-05-16T10:50:34.408Z,96522.63
2023-05-16T10:53:15.788Z,96531.16
2023-05-16T10:55:46.306Z,96524.88
2023-05-16T10:58:13.895Z,96534.50
2023-05-16T11:00:41.884Z,96526.72
2023-05-16T11:03:25.934Z,96532.47
2023-05-16T11:05:54.334Z,96530.47
2023-05-16T11:08:21.917Z,96537.75
2023-05-16T11:10:49.493Z,96526.28
2023-05-16T11:13:19.757Z,96536.34
2023-05-16T11:15:47.436Z,96532.94
2023-05-16T11:18:18.801Z,96530.75
2023-05-16T11:20:46.693Z,96524.09
2023-05-16T11:23:21.807Z,96531.38
2023-05-16T11:25:51.695Z,96530.78
2023-05-16T11:28:20.387Z,96534.47
2023-05-16T11:30:49.555Z,96534.94
2023-05-16T11:33:18.873Z,96537.81
2023-05-16T11:36:14.503Z,96536.28
2023-05-16T11:38:43.876Z,96543.91
2023-05-16T11:41:12.354Z,96533.81
2023-05-16T11:43:43.977Z,96546.69
2023-05-16T11:46:14.944Z,96544.41
2023-05-16T11:48:46.414Z,96547.53
2023-05-16T11:51:14.755Z,96542.03
2023-05-16T11:53:42.408Z,96543.28
2023-05-16T11:56:10.078Z,96538.28
2023-05-16T11:58:38.410Z,96546.41
2023-05-16T12:01:06.676Z,96553.19
2023-05-16T12:03:35.947Z,96553.00
2023-05-16T12:06:05.220Z,96550.03
2023-05-16T12:08:32.792Z,96556.41
2023-05-16T12:11:00.349Z,96555.81
2023-05-16T12:13:28.074Z,96557.25
2023-05-16T12:15:55.755Z,96547.78
2023-05-16T12:18:25.333Z,96554.09
2023-05-16T12:20:53.338Z,96554.44
2023-05-16T12:23:22.336Z,96556.22
2023-05-16T12:25:50.031Z,96561.00
2023-05-16T12:28:17.742Z,96554.28
2023-05-16T12:30:47.929Z,96561.25
2023-05-16T12:33:17.078Z,96575.31
2023-05-16T12:35:46.703Z,96569.72
2023-05-16T12:38:15.988Z,96580.00
2023-05-16T12:40:45.498Z,96574.13
2023-05-16T12:43:16.444Z,96575.31
2023-05-16T12:45:44.447Z,96576.22
2023-05-16T12:48:15.145Z,96573.25
2023-05-16T12:50:42.828Z,96575.13
2023-05-16T12:53:13.562Z,96573.75
2023-05-16T12:55:41.205Z,96568.00
2023-05-16T12:58:10.746Z,96576.13
2023-05-16T13:00:39.123Z,96568.25
2023-05-16T13:03:07.478Z,96576.84
2023-05-16T13:05:35.992Z,96576.75
2023-05-16T13:08:03.904Z,96578.22
2023-05-16T13:10:31.527Z,96571.63
2023-05-16T13:13:00.069Z,96587.78
2023-05-16T13:15:29.560Z,96593.13
2023-05-16T13:17:57.360Z,96589.09
2023-05-16T13:20:25.453Z,96597.06
2023-05-16T13:22:53.059Z,96611.50
2023-05-16T13:25:20.958Z,96612.22
2023-05-16T13:27:49.335Z,96610.00
2023-05-16T13:30:16.954Z,96616.28
2023-05-16T13:32:45.869Z,96624.84
2023-05-16T13:35:13.483Z,96632.13
2023-05-16T13:37:41.525Z,96631.31
2023-05-16T13:40:10.407Z,96635.38
2023-05-16T13:42:38.785Z,96629.97
2023-05-16T13:45:07.860Z,96630.13
2023-05-16T13:47:35.617Z,96607.09
2023-05-16T13:50:09.197Z,96634.78
2023-05-16T13:52:37.971Z,96646.41
2023-05-16T13:55:06.624Z,96638.47
2023-05-16T13:57:34.210Z,96649.00
2023-05-16T14:02:32.688Z,96640.81
2023-05-16T14:05:00.345Z,96645.94
2023-05-16T14:07:29.272Z,96649.75
2023-05-16T14:09:56.854Z,96658.66
2023-05-16T14:12:24.421Z,96642.75
2023-05-16T14:14:52.223Z,96654.09
2023-05-16T14:17:19.844Z,96652.97
2023-05-16T14:19:47.433Z,96661.81
2023-05-16T14:22:14.951Z,96651.81
2023-05-16T14:24:44.071Z,96661.34
2023-05-16T14:27:11.646Z,96654.28
2023-05-16T14:29:39.247Z,96649.69
2023-05-16T14:32:07.102Z,96648.13
2023-05-16T14:34:34.653Z,96650.53
2023-05-16T14:37:02.265Z,96644.00
2023-05-16T14:39:32.441Z,96645.56
2023-05-16T14:42:01.383Z,96644.13
2023-05-16T14:44:28.950Z,96658.47
2023-05-16T14:46:56.550Z,96662.53
2023-05-16T14:49:24.217Z,96649.94
2023-05-16T14:51:52.239Z,96666.75
2023-05-16T14:54:20.114Z,96663.13
2023-05-16T14:56:47.773Z,96663.00
2023-05-16T14:59:16.908Z,96658.91
2023-05-16T15:01:44.581Z,96651.38
2023-05-16T15:04:12.218Z,96662.97
2023-05-16T15:06:39.773Z,96658.91
2023-05-16T15:09:07.375Z,96662.69
2023-05-16T15:11:34.977Z,96671.28
2023-05-16T15:14:02.609Z,96664.84
2023-05-16T15:16:32.180Z,96670.13
2023-05-16T15:19:00.793Z,96651.97
2023-05-16T15:21:28.949Z,96668.09
2023-05-16T15:23:56.661Z,96670.84
2023-05-16T15:26:24.755Z,96678.94
2023-05-16T15:28:52.312Z,96685.53
2023-05-16T15:31:20.120Z,96683.38
2023-05-16T15:33:49.074Z,96672.78
2023-05-16T15:36:16.614Z,96673.75
2023-05-16T15:38:45.630Z,96688.94
2023-05-16T15:41:26.943Z,96679.97
2023-05-16T15:44:02.664Z,96673.66
2023-05-16T15:46:32.952Z,96696.06
2023-05-16T15:49:02.097Z,96693.22
2023-05-16T15:51:29.644Z,96690.09
2023-05-16T15:53:57.400Z,96686.59
2023-05-16T15:56:24.986Z,96691.94
2023-05-16T15:58:52.549Z,96695.94
2023-05-16T16:01:20.114Z,96695.34
2023-05-16T16:03:48.102Z,96679.19
2023-05-16T16:06:17.188Z,96701.47
2023-05-16T16:08:44.788Z,96708.28
2023-05-16T16:11:12.336Z,96703.38
2023-05-16T16:13:39.925Z,96699.00
2023-05-16T16:16:08.097Z,96708.56
2023-05-16T16:18:35.891Z,96714.88
2023-05-16T16:21:04.094Z,96707.44
2023-05-16T16:23:33.207Z,96705.22
2023-05-16T16:26:01.030Z,96721.19
2023-05-16T16:28:28.562Z,96726.09
2023-05-16T16:30:56.170Z,96723.06
2023-05-16T16:33:23.791Z,96727.78
2023-05-16T16:35:52.012Z,96730.44
2023-05-16T16:38:19.646Z,96739.03
2023-05-16T16:40:48.710Z,96729.03
2023-05-16T16:43:16.341Z,96734.72
2023-05-16T16:45:43.914Z,96734.75
2023-05-16T16:48:11.741Z,96737.25
2023-05-16T16:50:39.501Z,96732.97
2023-05-16T16:53:07.119Z,96746.03
2023-05-16T16:55:35.895Z,96749.72
2023-05-16T16:58:05.377Z,96746.66
2023-05-16T17:00:33.049Z,96760.78
2023-05-16T17:03:00.924Z,96766.13
2023-05-16T17:05:28.801Z,96761.44
2023-05-16T17:07:56.662Z,96772.88
2023-05-16T17:10:24.294Z,96781.44
2023-05-16T17:12:52.199Z,96759.19
2023-05-16T17:15:21.271Z,96786.97
2023-05-16T17:17:49.387Z,96795.53
2023-05-16T17:20:17.210Z,96794.72
2023-05-16T17:22:44.789Z,96792.91
2023-05-16T17:25:12.456Z,96798.81
2023-05-16T17:27:40.755Z,96795.94
2023-05-16T17:30:10.473Z,96814.25
2023-05-16T17:32:39.850Z,96825.47
2023-05-16T17:35:07.987Z,96840.69
2023-05-16T17:37:35.719Z,96824.13
2023-05-16T17:40:05.807Z,96823.25
2023-05-16T17:42:33.515Z,96828.03
2023-05-16T17:45:04.316Z,96830.47
2023-05-16T17:47:31.966Z,96826.34
2023-05-16T17:50:00.995Z,96821.81
2023-05-16T17:52:28.832Z,96819.34
2023-05-16T17:54:56.371Z,96822.00
2023-05-16T17:57:23.916Z,96816.91
2023-05-16T17:59:51.498Z,96813.59
2023-05-16T18:02:19.133Z,96822.69
2023-05-16T18:04:48.157Z,96833.81
2023-05-16T18:07:17.271Z,96834.19
2023-05-16T18:09:45.070Z,96835.81
2023-05-16T18:12:12.671Z,96838.25
2023-05-16T18:14:40.754Z,96841.00
2023-05-16T18:17:09.285Z,96840.94
2023-05-16T18:19:37.321Z,96853.31
2023-05-16T18:22:07.023Z,96820.91
2023-05-16T18:24:36.086Z,96850.16
2023-05-16T18:27:04.230Z,96854.81
2023-05-16T18:29:32.014Z,96864.41
2023-05-16T18:32:00.078Z,96860.94
2023-05-16T18:34:27.640Z,96877.00
2023-05-16T18:36:55.232Z,96867.16
2023-05-16T18:39:22.779Z,96876.31
2023-05-16T18:41:51.744Z,96887.31
2023-05-16T18:44:20.246Z,96874.84
2023-05-16T18:46:47.902Z,96890.72
2023-05-16T18:49:15.711Z,96881.47
2023-05-16T18:51:43.307Z,96890.28
2023-05-16T18:54:10.879Z,96885.38
2023-05-16T18:56:39.636Z,96883.91
2023-05-16T18:59:08.524Z,96883.72
2023-05-16T19:01:36.170Z,96825.25
2023-05-16T19:04:03.943Z,96880.75
2023-05-16T19:06:31.582Z,96885.53
2023-05-16T19:08:59.171Z,96883.41
2023-05-16T19:11:26.856Z,96902.69
2023-05-16T19:13:54.485Z,96898.56
2023-05-16T19:16:23.466Z,96903.59
2023-05-16T19:18:51.224Z,96896.19
2023-05-16T19:21:18.886Z,96901.22
2023-05-16T19:23:46.770Z,96906.72
2023-05-16T19:26:14.399Z,96917.19
2023-05-16T19:28:42.621Z,96909.97
2023-05-16T19:31:10.843Z,96911.78
2023-05-16T19:33:39.777Z,96903.31
2023-05-16T19:36:08.653Z,96904.97
2023-05-16T19:38:36.407Z,96906.31
2023-05-16T19:41:04.252Z,96906.31
2023-05-16T19:43:31.842Z,96921.06
2023-05-16T19:45:59.414Z,96926.72
2023-05-16T19:48:27.902Z,96915.59
2023-05-16T19:50:57.235Z,96939.13
2023-05-16T19:53:24.827Z,96939.94
2023-05-16T19:55:52.465Z,96943.41
2023-05-16T19:58:20.130Z,96944.06
2023-05-16T20:00:48.040Z,96933.94
2023-05-16T20:03:15.697Z,96949.22
2023-05-16T20:05:43.385Z,96952.22
2023-05-16T20:08:12.318Z,96948.78
2023-05-16T20:10:40.203Z,96960.53
2023-05-16T20:13:08.307Z,96959.34
2023-05-16T20:15:36.119Z,96960.16
2023-05-16T20:18:03.839Z,96963.16
2023-05-16T20:20:31.560Z,96963.31
2023-05-16T20:22:59.146Z,96968.44
2023-05-16T20:25:28.439Z,96960.34
2023-05-16T20:27:56.111Z,96965.31
2023-05-16T20:30:23.873Z,96968.16
2023-05-16T20:32:51.541Z,96972.09
2023-05-16T20:35:19.292Z,96969.59
2023-05-16T20:37:46.936Z,96970.94
2023-05-16T20:40:14.546Z,96965.81
2023-05-16T20:42:43.456Z,96964.53
2023-05-16T20:45:12.490Z,96931.03
2023-05-16T20:47:40.174Z,96961.59
2023-05-16T20:50:08.778Z,96957.66
2023-05-16T20:52:36.387Z,96961.00
2023-05-16T20:55:03.936Z,96969.47
2023-05-16T20:57:31.688Z,96964.06
2023-05-16T21:00:01.520Z,96970.22
2023-05-16T21:02:29.690Z,96971.69
2023-05-16T21:04:59.401Z,96967.59
2023-05-16T21:07:29.838Z,96973.19
2023-05-16T21:09:57.441Z,96973.69
2023-05-16T21:12:25.073Z,96977.50
2023-05-16T21:14:52.769Z,96981.28
2023-05-16T21:17:21.691Z,96977.50
2023-05-16T21:19:49.265Z,96979.66
2023-05-16T21:22:16.865Z,96983.66
2023-05-16T21:24:44.421Z,96989.94
2023-05-16T21:27:11.991Z,96988.63
2023-05-16T21:29:39.577Z,96995.06
2023-05-16T21:32:09.247Z,96995.78
2023-05-16T21:34:38.157Z,96994.63
2023-05-16T21:37:07.254Z,96994.53
2023-05-16T21:39:34.875Z,96999.97
2023-05-16T21:42:02.441Z,96996.03
2023-05-16T21:44:31.638Z,97011.03
2023-05-16T21:46:59.922Z,97003.50
2023-05-16T21:49:27.540Z,97019.34
2023-05-16T21:51:56.541Z,97008.78
2023-05-16T21:54:24.138Z,97014.41
2023-05-16T21:56:51.709Z,97025.59
2023-05-16T21:59:19.268Z,97018.38
2023-05-16T22:01:46.842Z,97022.34
2023-05-16T22:04:14.561Z,97026.00
2023-05-16T22:06:42.223Z,97018.06
2023-05-16T22:09:11.737Z,97023.16
2023-05-16T22:11:39.310Z,97023.34
2023-05-16T22:14:06.965Z,97020.53
2023-05-16T22:16:34.566Z,97015.94
2023-05-16T22:19:03.526Z,96988.16
2023-05-16T22:21:31.204Z,97033.06
2023-05-16T22:23:58.979Z,97031.75
2023-05-16T22:26:27.898Z,97032.94
2023-05-16T22:28:55.445Z,97036.88
2023-05-16T22:31:23.050Z,97031.28
2023-05-16T22:33:50.714Z,97031.94
2023-05-16T22:36:18.328Z,97035.25
2023-05-16T22:38:45.912Z,97034.94
2023-05-16T22:41:13.465Z,97034.44
2023-05-16T22:43:42.370Z,97038.06
2023-05-16T22:46:09.922Z,97032.13
2023-05-16T22:48:37.561Z,97039.75
2023-05-16T22:51:05.503Z,97036.25
2023-05-16T22:53:33.191Z,97043.19
2023-05-16T22:56:00.812Z,97047.00
2023-05-16T22:58:28.346Z,97050.44
2023-05-16T23:00:57.991Z,97049.78
2023-05-16T23:03:25.703Z,97051.44
2023-05-16T23:05:53.342Z,97054.72
2023-05-16T23:08:20.924Z,97058.53
2023-05-16T23:10:48.546Z,97057.88
2023-05-16T23:13:16.119Z,97032.72
2023-05-16T23:15:43.676Z,97067.25
2023-05-16T23:18:12.707Z,97053.41
2023-05-16T23:20:40.324Z,97058.19
2023-05-16T23:23:07.889Z,97064.63
2023-05-16T23:25:35.485Z,97068.25
2023-05-16T23:28:03.054Z,97065.44
2023-05-16T23:30:30.669Z,97075.34
2023-05-16T23:32:58.469Z,97082.25
2023-05-16T23:35:27.748Z,97070.59
2023-05-16T23:37:55.438Z,97082.13
2023-05-16T23:40:23.131Z,97088.19
2023-05-16T23:42:51.249Z,97094.00
2023-05-16T23:45:18.814Z,97086.25
2023-05-16T23:47:46.703Z,97095.47
2023-05-16T23:50:15.528Z,97096.44
2023-05-16T23:52:44.508Z,97095.78
2023-05-16T23:55:12.057Z,97102.72
2023-05-16T23:57:41.068Z,97105.03
